createdAt,value
2019-05-29T00:01:40.594Z,5.40
2019-05-29T00:04:12.382Z,6.20
2019-05-29T00:06:42.723Z,5.63
2019-05-29T00:09:14.196Z,10.87
2019-05-29T00:11:44.614Z,7.57
2019-05-29T00:14:22.740Z,7.93
2019-05-29T00:16:46.798Z,7.87
2019-05-29T00:19:18.748Z,8.17
2019-05-29T00:21:49.025Z,6.77
2019-05-29T00:24:19.334Z,5.20
2019-05-29T00:26:49.670Z,6.00
2019-05-29T00:29:20.022Z,6.70
2019-05-29T00:31:50.358Z,5.30
2019-05-29T00:34:20.719Z,5.40
2019-05-29T00:36:51.062Z,4.87
2019-05-29T00:39:21.384Z,5.13
2019-05-29T00:41:51.652Z,5.80
2019-05-29T00:44:34.037Z,8.47
2019-05-29T00:46:54.789Z,12.47
2019-05-29T00:49:25.084Z,11.37
2019-05-29T00:51:55.348Z,13.33
2019-05-29T00:54:25.647Z,11.73
2019-05-29T00:56:55.894Z,11.80
2019-05-29T00:59:26.194Z,12.20
2019-05-29T01:01:56.458Z,28.27
2019-05-29T01:04:26.744Z,20.00
2019-05-29T01:06:57.026Z,13.90
2019-05-29T01:09:27.379Z,10.87
2019-05-29T01:11:57.616Z,8.57
2019-05-29T01:14:27.914Z,5.70
2019-05-29T01:16:58.170Z,7.73
2019-05-29T01:19:28.454Z,5.20
2019-05-29T01:21:58.904Z,5.87
2019-05-29T01:24:29.196Z,6.07
2019-05-29T01:26:59.546Z,4.97
2019-05-29T01:29:29.802Z,5.73
2019-05-29T01:32:00.082Z,4.23
2019-05-29T01:34:30.380Z,6.23
2019-05-29T01:37:00.645Z,12.57
2019-05-29T01:39:30.944Z,11.50
2019-05-29T01:42:01.238Z,4.53
2019-05-29T01:44:31.489Z,7.07
2019-05-29T01:47:01.787Z,4.93
2019-05-29T01:49:32.037Z,3.63
2019-05-29T01:52:02.439Z,4.10
2019-05-29T01:54:32.690Z,6.53
2019-05-29T01:57:02.982Z,3.77
2019-05-29T01:59:33.273Z,4.70
2019-05-29T02:02:03.542Z,3.47
2019-05-29T02:04:35.002Z,3.10
2019-05-29T02:07:05.297Z,3.93
2019-05-29T02:09:35.594Z,3.33
2019-05-29T02:12:05.981Z,3.30
2019-05-29T02:14:36.251Z,3.00
2019-05-29T02:17:06.546Z,3.10
2019-05-29T02:19:36.817Z,4.97
2019-05-29T02:22:07.114Z,8.07
2019-05-29T02:24:37.410Z,6.73
2019-05-29T02:27:07.699Z,4.20
2019-05-29T02:29:38.066Z,7.17
2019-05-29T02:32:08.362Z,6.00
2019-05-29T02:34:38.620Z,5.33
2019-05-29T02:37:08.937Z,7.73
2019-05-29T02:39:39.218Z,5.10
2019-05-29T02:42:10.101Z,8.73
2019-05-29T02:44:40.370Z,5.77
2019-05-29T02:47:10.650Z,7.53
2019-05-29T02:49:40.952Z,6.50
2019-05-29T02:52:11.247Z,6.57
2019-05-29T02:54:41.519Z,7.87
2019-05-29T02:57:11.821Z,6.00
2019-05-29T02:59:43.088Z,4.10
2019-05-29T03:02:13.456Z,4.83
2019-05-29T03:04:43.639Z,4.10
2019-05-29T03:07:13.954Z,5.27
2019-05-29T03:09:44.531Z,5.57
2019-05-29T03:12:14.864Z,4.00
2019-05-29T03:14:45.141Z,4.83
2019-05-29T03:17:15.433Z,3.80
2019-05-29T03:19:45.738Z,4.70
2019-05-29T03:22:16.031Z,3.63
2019-05-29T03:24:46.298Z,3.40
2019-05-29T03:27:16.578Z,4.67
2019-05-29T03:29:46.863Z,3.27
2019-05-29T03:32:17.156Z,4.50
2019-05-29T03:34:48.173Z,3.77
2019-05-29T03:37:18.698Z,3.97
2019-05-29T03:39:48.981Z,3.73
2019-05-29T03:42:19.305Z,5.63
2019-05-29T03:44:49.546Z,4.30
2019-05-29T03:47:19.849Z,4.37
2019-05-29T03:49:50.123Z,5.47
2019-05-29T03:52:20.434Z,3.90
2019-05-29T03:54:50.737Z,3.77
2019-05-29T03:57:21.051Z,6.07
2019-05-29T03:59:51.514Z,7.50
2019-05-29T04:02:21.770Z,6.30
2019-05-29T04:04:52.091Z,4.33
2019-05-29T04:07:22.410Z,3.87
2019-05-29T04:09:52.634Z,5.80
2019-05-29T04:12:22.931Z,5.43
2019-05-29T04:14:53.805Z,4.47
2019-05-29T04:17:24.898Z,6.07
2019-05-29T04:19:55.897Z,5.33
2019-05-29T04:22:34.302Z,5.10
2019-05-29T04:25:05.469Z,4.63
2019-05-29T04:27:38.535Z,3.93
2019-05-29T04:30:10.222Z,4.43
2019-05-29T04:32:40.513Z,5.77
2019-05-29T04:35:10.911Z,5.37
2019-05-29T04:37:41.190Z,5.67
2019-05-29T04:40:12.655Z,5.73
2019-05-29T04:42:42.931Z,4.13
2019-05-29T04:45:13.222Z,3.60
2019-05-29T04:47:43.572Z,6.00
2019-05-29T04:50:14.899Z,6.47
2019-05-29T04:52:45.225Z,6.40
2019-05-29T04:55:15.525Z,4.03
2019-05-29T04:57:45.827Z,4.93
2019-05-29T05:00:16.106Z,3.47
2019-05-29T05:02:46.450Z,6.30
2019-05-29T05:05:19.560Z,5.33
2019-05-29T05:07:48.646Z,3.97
2019-05-29T05:10:35.535Z,8.00
2019-05-29T05:13:06.495Z,5.73
2019-05-29T05:15:37.998Z,6.07
2019-05-29T05:18:09.304Z,4.90
2019-05-29T05:20:40.393Z,4.77
2019-05-29T05:23:10.876Z,4.70
2019-05-29T05:25:41.205Z,4.33
2019-05-29T05:28:11.503Z,4.73
2019-05-29T05:30:41.762Z,3.20
2019-05-29T05:33:12.714Z,3.67
2019-05-29T05:35:43.026Z,5.03
2019-05-29T05:38:13.364Z,4.63
2019-05-29T05:40:43.669Z,3.47
2019-05-29T05:43:23.819Z,7.07
2019-05-29T05:45:45.882Z,4.10
2019-05-29T05:48:16.361Z,4.20
2019-05-29T05:50:47.838Z,3.80
2019-05-29T05:53:18.213Z,4.43
2019-05-29T05:55:48.491Z,3.20
2019-05-29T05:58:18.786Z,4.77
2019-05-29T06:00:49.257Z,3.83
2019-05-29T06:03:19.566Z,4.30
2019-05-29T06:05:49.827Z,4.20
2019-05-29T06:08:20.122Z,4.50
2019-05-29T06:10:51.898Z,4.00
2019-05-29T06:13:22.240Z,3.27
2019-05-29T06:15:52.518Z,4.30
2019-05-29T06:18:23.797Z,5.67
2019-05-29T06:20:54.084Z,5.80
2019-05-29T06:23:24.417Z,8.47
2019-05-29T06:25:54.754Z,3.80
2019-05-29T06:28:25.081Z,4.03
2019-05-29T06:30:55.533Z,4.07
2019-05-29T06:33:25.863Z,2.83
2019-05-29T06:35:56.273Z,2.97
2019-05-29T06:38:26.650Z,4.20
2019-05-29T06:40:57.006Z,3.77
2019-05-29T06:43:27.609Z,6.00
2019-05-29T06:45:57.913Z,2.23
2019-05-29T06:48:57.471Z,2.70
2019-05-29T06:51:01.104Z,2.50
2019-05-29T06:53:31.492Z,2.20
2019-05-29T06:56:02.686Z,5.47
2019-05-29T06:58:33.575Z,2.50
2019-05-29T07:01:03.886Z,3.33
2019-05-29T07:03:35.493Z,5.07
2019-05-29T07:06:05.942Z,3.30
2019-05-29T07:08:40.086Z,2.73
2019-05-29T07:11:09.115Z,4.57
2019-05-29T07:13:41.789Z,5.20
2019-05-29T07:16:11.318Z,4.93
2019-05-29T07:19:20.583Z,4.73
2019-05-29T07:21:14.607Z,2.53
2019-05-29T07:23:46.686Z,1.97
2019-05-29T07:26:16.858Z,3.67
2019-05-29T07:29:08.421Z,5.90
2019-05-29T07:31:19.221Z,3.97
2019-05-29T07:33:49.567Z,3.80
2019-05-29T07:36:19.869Z,4.60
2019-05-29T07:39:02.794Z,3.90
2019-05-29T07:41:22.223Z,3.70
2019-05-29T07:43:52.413Z,2.73
2019-05-29T07:46:22.704Z,3.40
2019-05-29T07:48:53.003Z,2.57
2019-05-29T07:51:23.301Z,4.40
2019-05-29T07:53:53.577Z,5.17
2019-05-29T07:56:23.867Z,3.27
2019-05-29T07:59:02.623Z,4.07
2019-05-29T08:01:26.212Z,3.10
2019-05-29T08:03:56.493Z,5.20
2019-05-29T08:06:26.764Z,5.73
2019-05-29T08:08:58.113Z,3.43
2019-05-29T08:11:28.501Z,1.87
2019-05-29T08:13:58.805Z,2.63
2019-05-29T08:16:29.090Z,6.53
2019-05-29T08:18:59.451Z,3.33
2019-05-29T08:21:29.805Z,3.57
2019-05-29T08:24:00.106Z,2.47
2019-05-29T08:26:30.410Z,4.47
2019-05-29T08:29:00.744Z,3.10
2019-05-29T08:31:31.057Z,3.37
2019-05-29T08:34:01.361Z,5.43
2019-05-29T08:36:31.651Z,3.87
2019-05-29T08:39:01.952Z,2.30
2019-05-29T08:41:32.294Z,3.37
2019-05-29T08:44:02.569Z,2.63
2019-05-29T08:46:33.560Z,3.63
2019-05-29T08:49:03.940Z,2.93
2019-05-29T08:51:34.229Z,1.97
2019-05-29T08:54:23.052Z,4.70
2019-05-29T08:56:37.704Z,3.03
2019-05-29T08:59:07.973Z,4.30
2019-05-29T09:01:38.358Z,6.40
2019-05-29T09:04:08.601Z,3.40
2019-05-29T09:06:38.898Z,8.00
2019-05-29T09:09:09.140Z,3.67
2019-05-29T09:11:39.425Z,4.13
2019-05-29T09:14:09.691Z,6.40
2019-05-29T09:16:40.061Z,3.30
2019-05-29T09:19:10.353Z,6.43
2019-05-29T09:21:40.633Z,5.23
2019-05-29T09:24:11.016Z,3.37
2019-05-29T09:26:41.274Z,4.93
2019-05-29T09:29:11.552Z,6.20
2019-05-29T09:31:42.070Z,5.67
2019-05-29T09:34:12.320Z,4.13
2019-05-29T09:36:42.764Z,4.43
2019-05-29T09:39:16.176Z,6.17
2019-05-29T09:41:45.219Z,3.07
2019-05-29T09:44:31.105Z,4.47
2019-05-29T09:46:47.410Z,5.70
2019-05-29T09:49:18.381Z,2.87
2019-05-29T09:51:48.860Z,3.83
2019-05-29T09:54:19.246Z,3.90
2019-05-29T09:56:49.603Z,4.03
2019-05-29T09:59:19.906Z,1.83
2019-05-29T10:01:50.230Z,2.87
2019-05-29T10:04:20.493Z,2.97
2019-05-29T10:06:50.758Z,3.17
2019-05-29T10:09:21.047Z,2.83
2019-05-29T10:11:51.301Z,3.73
2019-05-29T10:14:21.623Z,4.30
2019-05-29T10:16:51.880Z,3.83
2019-05-29T10:19:22.145Z,4.12
2019-05-29T10:21:52.414Z,3.30
2019-05-29T10:24:22.736Z,4.30
2019-05-29T10:26:53.039Z,3.07
2019-05-29T10:29:23.373Z,6.10
2019-05-29T10:31:53.669Z,3.80
2019-05-29T10:34:23.960Z,5.28
2019-05-29T10:36:54.804Z,4.65
2019-05-29T10:39:25.346Z,6.00
2019-05-29T10:41:55.625Z,3.17
2019-05-29T10:44:26.983Z,5.17
2019-05-29T10:46:57.507Z,5.45
2019-05-29T10:49:29.170Z,3.33
2019-05-29T10:52:14.029Z,4.55
2019-05-29T10:54:32.918Z,4.47
2019-05-29T10:57:04.983Z,3.30
2019-05-29T10:59:35.432Z,3.65
2019-05-29T11:02:06.157Z,1.70
2019-05-29T11:04:36.502Z,3.12
2019-05-29T11:07:06.769Z,6.50
2019-05-29T11:09:48.417Z,2.30
2019-05-29T11:12:22.231Z,2.37
2019-05-29T11:14:53.016Z,2.15
2019-05-29T11:17:26.369Z,3.02
2019-05-29T11:19:58.213Z,4.55
2019-05-29T11:22:28.678Z,2.87
2019-05-29T11:25:21.086Z,3.02
2019-05-29T11:27:33.538Z,3.25
2019-05-29T11:30:05.487Z,4.05
2019-05-29T11:32:36.738Z,2.80
2019-05-29T11:35:07.649Z,2.00
2019-05-29T11:37:38.811Z,2.10
2019-05-29T11:40:09.728Z,3.30
2019-05-29T11:42:42.064Z,2.05
2019-05-29T11:45:13.512Z,2.30
2019-05-29T11:47:45.180Z,3.08
2019-05-29T11:50:19.844Z,3.83
2019-05-29T11:52:52.230Z,2.95
2019-05-29T11:55:26.315Z,2.90
2019-05-29T11:57:58.020Z,1.95
2019-05-29T12:00:31.355Z,2.35
2019-05-29T12:03:01.987Z,2.55
2019-05-29T12:05:32.311Z,2.70
2019-05-29T12:08:02.610Z,3.40
2019-05-29T12:10:33.861Z,4.92
2019-05-29T12:13:04.137Z,2.12
2019-05-29T12:15:34.705Z,2.50
2019-05-29T12:18:23.205Z,2.62
2019-05-29T12:20:37.530Z,2.80
2019-05-29T12:23:25.169Z,2.45
2019-05-29T12:25:41.409Z,2.72
2019-05-29T12:28:12.263Z,3.00
2019-05-29T12:30:42.573Z,4.03
2019-05-29T12:33:12.867Z,1.27
2019-05-29T12:35:43.610Z,3.15
2019-05-29T12:38:13.848Z,1.82
2019-05-29T12:40:44.545Z,1.57
2019-05-29T12:43:27.015Z,1.72
2019-05-29T12:45:55.423Z,2.60
2019-05-29T12:48:35.578Z,4.35
2019-05-29T12:51:06.372Z,2.60
2019-05-29T12:53:36.674Z,3.87
2019-05-29T12:56:08.511Z,3.12
2019-05-29T12:58:46.324Z,2.12
2019-05-29T13:01:17.205Z,3.15
2019-05-29T13:03:47.574Z,1.42
2019-05-29T13:06:17.980Z,2.25
2019-05-29T13:08:56.407Z,1.30
2019-05-29T13:11:27.751Z,2.10
2019-05-29T13:13:58.455Z,2.77
2019-05-29T13:16:29.100Z,2.83
2019-05-29T13:18:59.411Z,9.45
2019-05-29T13:21:29.701Z,2.10
2019-05-29T13:24:02.289Z,1.37
2019-05-29T13:26:32.189Z,1.85
2019-05-29T13:29:03.814Z,1.95
2019-05-29T13:31:34.641Z,1.98
2019-05-29T13:34:05.087Z,4.42
2019-05-29T13:36:35.434Z,3.35
2019-05-29T13:39:07.408Z,3.77
2019-05-29T13:41:38.468Z,3.35
2019-05-29T13:44:11.840Z,4.10
2019-05-29T13:46:41.481Z,2.75
2019-05-29T13:49:11.830Z,2.90
2019-05-29T13:51:42.306Z,2.10
2019-05-29T13:54:17.494Z,2.25
2019-05-29T13:56:45.015Z,2.10
2019-05-29T13:59:15.421Z,3.92
2019-05-29T14:01:48.808Z,3.10
2019-05-29T14:04:20.664Z,1.87
2019-05-29T14:06:53.205Z,1.57
2019-05-29T14:09:23.714Z,3.98
2019-05-29T14:11:54.088Z,3.67
2019-05-29T14:14:24.425Z,2.55
2019-05-29T14:16:54.714Z,2.08
2019-05-29T14:19:25.111Z,2.40
2019-05-29T14:21:55.438Z,2.77
2019-05-29T14:24:30.024Z,2.67
2019-05-29T14:26:58.770Z,2.80
2019-05-29T14:29:29.103Z,2.45
2019-05-29T14:32:00.822Z,3.40
2019-05-29T14:34:31.448Z,2.50
2019-05-29T14:37:03.200Z,1.75
2019-05-29T14:39:33.875Z,2.17
2019-05-29T14:42:04.720Z,1.90
2019-05-29T14:44:36.259Z,1.07
2019-05-29T14:47:06.559Z,1.47
2019-05-29T14:49:36.862Z,2.77
2019-05-29T14:52:08.597Z,2.02
2019-05-29T14:54:42.106Z,3.10
2019-05-29T14:57:22.626Z,2.98
2019-05-29T14:59:43.059Z,3.60
2019-05-29T15:02:21.737Z,2.10
2019-05-29T15:04:45.364Z,1.82
2019-05-29T15:07:15.634Z,2.55
2019-05-29T15:09:45.929Z,3.62
2019-05-29T15:12:17.204Z,2.75
2019-05-29T15:14:47.578Z,1.17
2019-05-29T15:17:17.861Z,2.15
2019-05-29T15:19:48.159Z,2.55
2019-05-29T15:22:18.469Z,1.20
2019-05-29T15:25:01.411Z,1.42
2019-05-29T15:27:20.824Z,2.25
2019-05-29T15:29:51.145Z,1.70
2019-05-29T15:32:21.464Z,2.17
2019-05-29T15:34:51.834Z,1.62
2019-05-29T15:37:22.157Z,2.30
2019-05-29T15:39:52.575Z,2.77
2019-05-29T15:42:22.980Z,1.90
2019-05-29T15:44:53.304Z,1.40
2019-05-29T15:47:23.580Z,1.72
2019-05-29T15:49:54.875Z,1.85
2019-05-29T15:52:25.397Z,1.92
2019-05-29T15:54:57.735Z,1.60
2019-05-29T15:57:28.239Z,1.72
2019-05-29T15:59:58.966Z,5.65
2019-05-29T16:02:29.757Z,2.30
2019-05-29T16:05:00.477Z,2.05
2019-05-29T16:07:35.143Z,2.17
2019-05-29T16:10:12.321Z,1.42
2019-05-29T16:12:46.284Z,2.22
2019-05-29T16:15:17.674Z,2.10
2019-05-29T16:17:48.513Z,2.95
2019-05-29T16:20:22.703Z,1.10
2019-05-29T16:22:53.238Z,1.95
2019-05-29T16:25:39.515Z,1.15
2019-05-29T16:27:55.759Z,1.90
2019-05-29T16:30:26.097Z,1.85
2019-05-29T16:32:56.466Z,3.47
2019-05-29T16:35:29.055Z,3.42
2019-05-29T16:38:02.810Z,3.05
2019-05-29T16:40:36.726Z,1.55
2019-05-29T16:43:09.594Z,1.60
2019-05-29T16:45:44.460Z,1.50
2019-05-29T16:48:18.447Z,2.10
2019-05-29T16:50:55.091Z,2.08
2019-05-29T16:53:28.749Z,2.10
2019-05-29T16:56:04.072Z,1.87
2019-05-29T16:58:35.897Z,1.67
2019-05-29T17:01:08.597Z,2.60
2019-05-29T17:03:39.326Z,1.10
2019-05-29T17:06:14.221Z,1.82
2019-05-29T17:08:48.463Z,2.90
2019-05-29T17:11:20.395Z,2.12
2019-05-29T17:13:56.856Z,1.25
2019-05-29T17:16:33.915Z,1.98
2019-05-29T17:19:04.773Z,2.10
2019-05-29T17:21:36.877Z,2.40
2019-05-29T17:24:08.001Z,2.45
2019-05-29T17:26:39.345Z,2.05
2019-05-29T17:29:10.874Z,1.40
2019-05-29T17:31:41.353Z,1.35
2019-05-29T17:34:11.733Z,1.62
2019-05-29T17:36:46.196Z,1.65
2019-05-29T17:39:23.122Z,1.22
2019-05-29T17:41:55.326Z,2.50
2019-05-29T17:44:25.774Z,2.52
2019-05-29T17:46:58.190Z,2.50
2019-05-29T17:49:34.414Z,1.85
2019-05-29T17:52:10.454Z,1.47
2019-05-29T17:54:43.400Z,3.47
2019-05-29T17:57:13.779Z,1.90
2019-05-29T17:59:44.213Z,1.37
2019-05-29T18:02:15.955Z,1.50
2019-05-29T18:04:50.246Z,4.37
2019-05-29T18:07:20.717Z,2.20
2019-05-29T18:09:52.551Z,2.90
2019-05-29T18:12:25.059Z,2.77
2019-05-29T18:14:56.417Z,1.67
2019-05-29T18:17:27.928Z,1.40
2019-05-29T18:19:58.221Z,1.07
2019-05-29T18:22:28.596Z,1.90
2019-05-29T18:24:59.303Z,2.33
2019-05-29T18:27:29.596Z,3.62
2019-05-29T18:29:59.894Z,1.55
2019-05-29T18:32:31.282Z,2.65
2019-05-29T18:35:01.635Z,2.02
2019-05-29T18:37:32.440Z,2.10
2019-05-29T18:40:08.534Z,3.22
2019-05-29T18:42:36.479Z,2.25
2019-05-29T18:45:20.294Z,2.98
2019-05-29T18:47:41.096Z,2.08
2019-05-29T18:50:12.732Z,1.30
2019-05-29T18:52:43.056Z,2.58
2019-05-29T18:55:13.675Z,2.50
2019-05-29T18:57:44.240Z,1.95
2019-05-29T19:00:15.766Z,4.40
2019-05-29T19:02:46.329Z,4.50
2019-05-29T19:05:17.337Z,2.08
2019-05-29T19:07:48.933Z,2.70
2019-05-29T19:10:21.564Z,1.65
2019-05-29T19:12:52.303Z,2.77
2019-05-29T19:15:23.773Z,2.35
2019-05-29T19:17:54.317Z,1.62
2019-05-29T19:20:26.152Z,2.55
2019-05-29T19:22:56.905Z,2.10
2019-05-29T19:25:28.934Z,3.97
2019-05-29T19:27:59.704Z,1.93
2019-05-29T19:30:30.963Z,4.50
2019-05-29T19:33:01.746Z,2.37
2019-05-29T19:35:33.775Z,2.37
2019-05-29T19:38:04.134Z,2.40
2019-05-29T19:40:34.665Z,4.12
2019-05-29T19:43:05.124Z,2.13
2019-05-29T19:45:35.524Z,2.98
2019-05-29T19:48:06.974Z,2.23
2019-05-29T19:50:37.353Z,4.17
2019-05-29T19:53:08.022Z,2.90
2019-05-29T19:55:38.662Z,1.90
2019-05-29T19:58:10.012Z,2.20
2019-05-29T20:00:41.567Z,2.10
2019-05-29T20:03:12.031Z,2.07
2019-05-29T20:05:42.438Z,2.10
2019-05-29T20:08:14.099Z,2.40
2019-05-29T20:10:45.021Z,1.40
2019-05-29T20:13:15.427Z,1.47
2019-05-29T20:15:46.014Z,2.35
2019-05-29T20:18:16.373Z,2.57
2019-05-29T20:20:46.664Z,3.02
2019-05-29T20:23:16.992Z,1.60
2019-05-29T20:25:51.752Z,1.60
2019-05-29T20:28:24.952Z,2.10
2019-05-29T20:30:55.253Z,2.67
2019-05-29T20:33:25.627Z,1.70
2019-05-29T20:35:56.205Z,3.57
2019-05-29T20:38:26.649Z,2.37
2019-05-29T20:40:56.921Z,2.00
2019-05-29T20:43:27.650Z,3.57
2019-05-29T20:45:59.511Z,2.43
2019-05-29T20:48:30.574Z,4.12
2019-05-29T20:51:02.936Z,3.13
2019-05-29T20:53:42.348Z,4.20
2019-05-29T20:56:15.471Z,4.80
2019-05-29T20:58:53.996Z,3.62
2019-05-29T21:01:28.509Z,3.87
2019-05-29T21:04:00.097Z,3.67
2019-05-29T21:06:32.424Z,3.00
2019-05-29T21:09:07.711Z,4.60
2019-05-29T21:11:45.879Z,3.10
2019-05-29T21:14:19.374Z,4.47
2019-05-29T21:16:52.363Z,3.83
2019-05-29T21:19:28.684Z,2.33
2019-05-29T21:21:59.681Z,3.73
2019-05-29T21:24:32.403Z,4.03
2019-05-29T21:27:04.052Z,2.53
2019-05-29T21:29:37.217Z,2.63
2019-05-29T21:32:08.066Z,3.73
2019-05-29T21:34:39.892Z,2.40
2019-05-29T21:37:11.275Z,2.40
2019-05-29T21:39:42.422Z,2.23
2019-05-29T21:42:14.085Z,2.17
2019-05-29T21:44:44.897Z,2.17
2019-05-29T21:47:15.436Z,4.50
2019-05-29T21:49:47.449Z,3.97
2019-05-29T21:52:18.044Z,4.33
2019-05-29T21:54:48.401Z,3.07
2019-05-29T21:57:18.830Z,5.10
2019-05-29T21:59:49.217Z,4.57
2019-05-29T22:02:20.637Z,3.00
2019-05-29T22:04:51.080Z,3.03
2019-05-29T22:07:21.402Z,4.73
2019-05-29T22:09:52.316Z,2.40
2019-05-29T22:12:23.916Z,2.37
2019-05-29T22:14:55.134Z,2.50
2019-05-29T22:17:25.589Z,2.33
2019-05-29T22:20:25.153Z,2.10
2019-05-29T22:22:57.261Z,2.60
2019-05-29T22:25:27.585Z,2.93
2019-05-29T22:27:57.921Z,3.50
2019-05-29T22:30:28.314Z,2.90
2019-05-29T22:32:59.600Z,2.00
2019-05-29T22:35:30.106Z,4.00
2019-05-29T22:38:01.696Z,3.43
2019-05-29T22:40:32.355Z,3.00
2019-05-29T22:43:02.756Z,2.53
2019-05-29T22:45:33.190Z,2.43
2019-05-29T22:48:03.628Z,3.23
2019-05-29T22:50:33.950Z,2.77
2019-05-29T22:53:04.301Z,2.87
2019-05-29T22:55:34.648Z,2.13
2019-05-29T22:58:04.974Z,2.50
2019-05-29T23:00:35.280Z,3.53
2019-05-29T23:03:05.563Z,2.77
2019-05-29T23:05:35.883Z,4.97
2019-05-29T23:08:06.168Z,3.20
2019-05-29T23:10:36.587Z,3.40
2019-05-29T23:13:06.892Z,3.13
2019-05-29T23:15:37.200Z,2.70
2019-05-29T23:18:07.549Z,2.73
2019-05-29T23:20:37.832Z,3.10
2019-05-29T23:23:08.282Z,3.00
2019-05-29T23:25:38.613Z,3.77
2019-05-29T23:28:08.941Z,2.33
2019-05-29T23:30:39.253Z,2.87
2019-05-29T23:33:09.588Z,2.27
2019-05-29T23:35:39.978Z,2.33
2019-05-29T23:38:10.294Z,5.77
2019-05-29T23:40:40.647Z,4.97
2019-05-29T23:43:10.972Z,4.00
2019-05-29T23:45:41.245Z,2.10
2019-05-29T23:48:11.556Z,3.37
2019-05-29T23:50:41.875Z,2.70
2019-05-29T23:53:12.200Z,3.00
2019-05-29T23:55:42.478Z,2.40
2019-05-29T23:58:12.885Z,2.37
